sensor_id;sensor_type;location;lat;lon;timestamp;pressure;altitude;pressure_sealevel;temperature;humidity
55171;BME280;41060;47.510;8.680;2023-05-24T00:01:52;97158.41;;;19.55;47.49
55171;BME280;41060;47.510;8.680;2023-05-24T00:04:20;97152.84;;;19.56;47.60
55171;BME280;41060;47.510;8.680;2023-05-24T00:06:50;97149.09;;;19.66;47.94
55171;BME280;41060;47.510;8.680;2023-05-24T00:09:19;97146.72;;;19.71;47.32
55171;BME280;41060;47.510;8.680;2023-05-24T00:11:45;97145.59;;;19.65;47.48
55171;BME280;41060;47.510;8.680;2023-05-24T00:14:12;97147.78;;;19.62;46.90
55171;BME280;41060;47.510;8.680;2023-05-24T00:16:40;97145.38;;;19.67;46.81
55171;BME280;41060;47.510;8.680;2023-05-24T00:19:06;97128.50;;;19.58;46.74
55171;BME280;41060;47.510;8.680;2023-05-24T00:21:35;97152.72;;;19.50;47.34
55171;BME280;41060;47.510;8.680;2023-05-24T00:24:02;97152.91;;;19.48;46.96
55171;BME280;41060;47.510;8.680;2023-05-24T00:26:29;97148.56;;;19.39;47.33
55171;BME280;41060;47.510;8.680;2023-05-24T00:28:56;97152.56;;;19.43;47.15
55171;BME280;41060;47.510;8.680;2023-05-24T00:31:22;97151.91;;;19.41;47.97
55171;BME280;41060;47.510;8.680;2023-05-24T00:33:50;97151.06;;;19.49;47.31
55171;BME280;41060;47.510;8.680;2023-05-24T00:36:19;97160.00;;;19.33;47.66
55171;BME280;41060;47.510;8.680;2023-05-24T00:38:46;97146.16;;;19.44;47.90
55171;BME280;41060;47.510;8.680;2023-05-24T00:41:13;97144.84;;;19.48;47.73
55171;BME280;41060;47.510;8.680;2023-05-24T00:43:40;97147.41;;;19.34;48.04
55171;BME280;41060;47.510;8.680;2023-05-24T00:46:17;97141.91;;;19.27;48.08
55171;BME280;41060;47.510;8.680;2023-05-24T00:48:49;97139.03;;;19.29;47.87
55171;BME280;41060;47.510;8.680;2023-05-24T00:51:16;97140.91;;;19.28;47.87
55171;BME280;41060;47.510;8.680;2023-05-24T00:53:44;97140.28;;;19.18;47.85
55171;BME280;41060;47.510;8.680;2023-05-24T00:56:13;97144.25;;;18.91;48.84
55171;BME280;41060;47.510;8.680;2023-05-24T00:58:40;97144.19;;;18.99;48.49
55171;BME280;41060;47.510;8.680;2023-05-24T01:01:07;97138.94;;;19.14;48.79
55171;BME280;41060;47.510;8.680;2023-05-24T01:03:34;97140.91;;;19.28;48.64
55171;BME280;41060;47.510;8.680;2023-05-24T01:06:03;97143.06;;;19.33;48.65
55171;BME280;41060;47.510;8.680;2023-05-24T01:08:42;97110.09;;;19.16;47.29
55171;BME280;41060;47.510;8.680;2023-05-24T01:11:19;97140.50;;;19.39;47.60
55171;BME280;41060;47.510;8.680;2023-05-24T01:13:53;97143.34;;;19.38;47.94
55171;BME280;41060;47.510;8.680;2023-05-24T01:16:32;97139.31;;;19.11;48.64
55171;BME280;41060;47.510;8.680;2023-05-24T01:19:10;97146.53;;;19.10;48.79
55171;BME280;41060;47.510;8.680;2023-05-24T01:21:56;97142.03;;;19.03;48.93
55171;BME280;41060;47.510;8.680;2023-05-24T01:24:29;97135.81;;;19.02;48.83
55171;BME280;41060;47.510;8.680;2023-05-24T01:27:07;97138.19;;;18.97;48.75
55171;BME280;41060;47.510;8.680;2023-05-24T01:29:35;97147.06;;;19.06;48.82
55171;BME280;41060;47.510;8.680;2023-05-24T01:32:04;97144.38;;;19.06;48.69
55171;BME280;41060;47.510;8.680;2023-05-24T01:34:32;97142.63;;;19.21;48.86
55171;BME280;41060;47.510;8.680;2023-05-24T01:36:59;97141.13;;;19.18;48.87
55171;BME280;41060;47.510;8.680;2023-05-24T01:39:27;97143.16;;;19.08;48.23
55171;BME280;41060;47.510;8.680;2023-05-24T01:42:01;97137.25;;;18.82;48.59
55171;BME280;41060;47.510;8.680;2023-05-24T01:44:35;97142.97;;;18.71;49.31
55171;BME280;41060;47.510;8.680;2023-05-24T01:47:11;97144.81;;;18.70;49.26
55171;BME280;41060;47.510;8.680;2023-05-24T01:49:49;97149.00;;;18.73;49.32
55171;BME280;41060;47.510;8.680;2023-05-24T01:52:18;97147.84;;;18.67;50.17
55171;BME280;41060;47.510;8.680;2023-05-24T01:54:50;97145.47;;;18.72;50.20
55171;BME280;41060;47.510;8.680;2023-05-24T01:57:18;97133.06;;;18.63;49.86
55171;BME280;41060;47.510;8.680;2023-05-24T01:59:46;97148.16;;;18.72;50.10
55171;BME280;41060;47.510;8.680;2023-05-24T02:02:15;97139.94;;;18.74;49.50
55171;BME280;41060;47.510;8.680;2023-05-24T02:04:42;97144.78;;;18.62;49.92
55171;BME280;41060;47.510;8.680;2023-05-24T02:07:09;97135.47;;;18.34;50.49
55171;BME280;41060;47.510;8.680;2023-05-24T02:09:36;97140.34;;;18.47;50.15
55171;BME280;41060;47.510;8.680;2023-05-24T02:12:03;97134.13;;;18.46;50.20
55171;BME280;41060;47.510;8.680;2023-05-24T02:14:29;97100.31;;;18.29;50.46
55171;BME280;41060;47.510;8.680;2023-05-24T02:16:57;97134.28;;;18.53;50.15
55171;BME280;41060;47.510;8.680;2023-05-24T02:19:24;97128.91;;;18.61;50.78
55171;BME280;41060;47.510;8.680;2023-05-24T02:21:51;97134.28;;;18.69;50.21
55171;BME280;41060;47.510;8.680;2023-05-24T02:24:19;97126.03;;;18.62;50.15
55171;BME280;41060;47.510;8.680;2023-05-24T02:26:45;97133.75;;;18.65;50.17
55171;BME280;41060;47.510;8.680;2023-05-24T02:29:13;97128.44;;;18.41;51.00
55171;BME280;41060;47.510;8.680;2023-05-24T02:31:40;97127.25;;;18.43;51.12
55171;BME280;41060;47.510;8.680;2023-05-24T02:34:08;97124.91;;;18.40;51.37
55171;BME280;41060;47.510;8.680;2023-05-24T02:36:34;97131.94;;;18.41;50.62
55171;BME280;41060;47.510;8.680;2023-05-24T02:39:02;97128.47;;;18.25;51.48
55171;BME280;41060;47.510;8.680;2023-05-24T02:41:29;97133.84;;;18.17;51.57
55171;BME280;41060;47.510;8.680;2023-05-24T02:43:57;97136.16;;;17.79;52.67
55171;BME280;41060;47.510;8.680;2023-05-24T02:46:24;97132.28;;;17.82;52.67
55171;BME280;41060;47.510;8.680;2023-05-24T02:48:50;97130.16;;;17.85;52.49
55171;BME280;41060;47.510;8.680;2023-05-24T02:51:18;97134.13;;;17.81;53.05
55171;BME280;41060;47.510;8.680;2023-05-24T02:53:45;97126.13;;;17.97;52.90
55171;BME280;41060;47.510;8.680;2023-05-24T02:56:12;97127.81;;;18.23;52.24
55171;BME280;41060;47.510;8.680;2023-05-24T02:58:42;97124.59;;;18.19;51.87
55171;BME280;41060;47.510;8.680;2023-05-24T03:01:10;97132.16;;;18.24;51.85
55171;BME280;41060;47.510;8.680;2023-05-24T03:03:39;97123.91;;;18.41;51.18
55171;BME280;41060;47.510;8.680;2023-05-24T03:06:06;97128.25;;;18.42;51.55
55171;BME280;41060;47.510;8.680;2023-05-24T03:08:34;97130.13;;;18.26;51.46
55171;BME280;41060;47.510;8.680;2023-05-24T03:11:02;97130.09;;;18.42;51.51
55171;BME280;41060;47.510;8.680;2023-05-24T03:13:31;97110.38;;;18.11;52.00
55171;BME280;41060;47.510;8.680;2023-05-24T03:15:58;97139.22;;;18.17;51.96
55171;BME280;41060;47.510;8.680;2023-05-24T03:18:25;97133.31;;;17.89;52.35
55171;BME280;41060;47.510;8.680;2023-05-24T03:20:51;97134.16;;;17.97;52.13
55171;BME280;41060;47.510;8.680;2023-05-24T03:23:18;97138.84;;;18.03;51.75
55171;BME280;41060;47.510;8.680;2023-05-24T03:25:46;97140.69;;;18.03;51.67
55171;BME280;41060;47.510;8.680;2023-05-24T03:28:13;97135.00;;;17.98;52.07
55171;BME280;41060;47.510;8.680;2023-05-24T03:30:43;97139.53;;;18.14;51.89
55171;BME280;41060;47.510;8.680;2023-05-24T03:33:10;97144.06;;;18.05;51.80
55171;BME280;41060;47.510;8.680;2023-05-24T03:35:36;97141.03;;;17.84;52.25
55171;BME280;41060;47.510;8.680;2023-05-24T03:38:04;97142.88;;;17.91;52.19
55171;BME280;41060;47.510;8.680;2023-05-24T03:40:33;97139.03;;;17.94;52.15
55171;BME280;41060;47.510;8.680;2023-05-24T03:43:02;97098.81;;;17.53;52.35
55171;BME280;41060;47.510;8.680;2023-05-24T03:45:29;97129.66;;;17.98;52.21
55171;BME280;41060;47.510;8.680;2023-05-24T03:47:55;97096.34;;;18.00;52.11
55171;BME280;41060;47.510;8.680;2023-05-24T03:50:22;97135.47;;;18.34;51.73
55171;BME280;41060;47.510;8.680;2023-05-24T03:52:49;97130.78;;;18.36;51.54
55171;BME280;41060;47.510;8.680;2023-05-24T03:55:17;97132.81;;;18.34;51.53
55171;BME280;41060;47.510;8.680;2023-05-24T03:57:46;97134.31;;;18.28;51.75
55171;BME280;41060;47.510;8.680;2023-05-24T04:00:14;97138.16;;;18.34;51.46
55171;BME280;41060;47.510;8.680;2023-05-24T04:02:41;97135.16;;;18.37;51.14
55171;BME280;41060;47.510;8.680;2023-05-24T04:05:10;97137.97;;;18.52;50.60
55171;BME280;41060;47.510;8.680;2023-05-24T04:07:38;97140.81;;;18.58;50.81
55171;BME280;41060;47.510;8.680;2023-05-24T04:10:06;97129.09;;;18.43;51.41
55171;BME280;41060;47.510;8.680;2023-05-24T04:12:33;97136.47;;;18.33;51.79
55171;BME280;41060;47.510;8.680;2023-05-24T04:15:00;97116.09;;;18.08;52.10
55171;BME280;41060;47.510;8.680;2023-05-24T04:17:28;97139.69;;;18.20;52.54
55171;BME280;41060;47.510;8.680;2023-05-24T04:19:58;97141.72;;;18.02;52.82
55171;BME280;41060;47.510;8.680;2023-05-24T04:22:26;97138.00;;;17.71;53.61
55171;BME280;41060;47.510;8.680;2023-05-24T04:24:54;97139.16;;;17.68;53.70
55171;BME280;41060;47.510;8.680;2023-05-24T04:27:21;97138.19;;;17.85;53.05
55171;BME280;41060;47.510;8.680;2023-05-24T04:29:50;97134.97;;;17.82;53.53
55171;BME280;41060;47.510;8.680;2023-05-24T04:32:17;97139.69;;;17.80;53.84
55171;BME280;41060;47.510;8.680;2023-05-24T04:34:45;97131.13;;;17.76;53.44
55171;BME280;41060;47.510;8.680;2023-05-24T04:37:12;97133.81;;;17.76;53.53
55171;BME280;41060;47.510;8.680;2023-05-24T04:39:41;97133.28;;;17.81;52.98
55171;BME280;41060;47.510;8.680;2023-05-24T04:42:08;97137.00;;;17.88;53.27
55171;BME280;41060;47.510;8.680;2023-05-24T04:44:35;97135.84;;;17.90;52.94
55171;BME280;41060;47.510;8.680;2023-05-24T04:47:02;97143.56;;;17.85;53.25
55171;BME280;41060;47.510;8.680;2023-05-24T04:49:31;97139.22;;;18.00;53.10
55171;BME280;41060;47.510;8.680;2023-05-24T04:52:03;97140.03;;;18.01;52.69
55171;BME280;41060;47.510;8.680;2023-05-24T04:54:30;97141.31;;;17.81;53.06
55171;BME280;41060;47.510;8.680;2023-05-24T04:56:56;97142.72;;;17.85;53.08
55171;BME280;41060;47.510;8.680;2023-05-24T04:59:24;97154.59;;;17.90;53.42
55171;BME280;41060;47.510;8.680;2023-05-24T05:01:50;97158.28;;;17.97;52.59
55171;BME280;41060;47.510;8.680;2023-05-24T05:04:17;97163.09;;;17.78;53.55
55171;BME280;41060;47.510;8.680;2023-05-24T05:06:44;97156.38;;;17.74;53.33
55171;BME280;41060;47.510;8.680;2023-05-24T05:09:13;97157.13;;;17.92;52.92
55171;BME280;41060;47.510;8.680;2023-05-24T05:11:40;97162.16;;;17.87;53.04
55171;BME280;41060;47.510;8.680;2023-05-24T05:14:07;97163.78;;;17.80;53.22
55171;BME280;41060;47.510;8.680;2023-05-24T05:16:34;97160.41;;;17.78;53.47
55171;BME280;41060;47.510;8.680;2023-05-24T05:19:04;97163.56;;;17.49;54.40
55171;BME280;41060;47.510;8.680;2023-05-24T05:21:31;97166.00;;;17.26;55.34
55171;BME280;41060;47.510;8.680;2023-05-24T05:23:58;97169.03;;;17.31;54.97
55171;BME280;41060;47.510;8.680;2023-05-24T05:26:27;97173.22;;;17.34;54.92
55171;BME280;41060;47.510;8.680;2023-05-24T05:28:54;97180.72;;;17.30;54.83
55171;BME280;41060;47.510;8.680;2023-05-24T05:31:21;97183.47;;;17.54;54.06
55171;BME280;41060;47.510;8.680;2023-05-24T05:33:47;97178.09;;;17.46;54.39
55171;BME280;41060;47.510;8.680;2023-05-24T05:36:15;97133.72;;;17.27;54.70
55171;BME280;41060;47.510;8.680;2023-05-24T05:38:41;97141.75;;;17.27;54.57
55171;BME280;41060;47.510;8.680;2023-05-24T05:41:08;97172.22;;;17.35;54.35
55171;BME280;41060;47.510;8.680;2023-05-24T05:43:37;97172.69;;;17.30;54.63
55171;BME280;41060;47.510;8.680;2023-05-24T05:46:04;97172.66;;;17.22;54.80
55171;BME280;41060;47.510;8.680;2023-05-24T05:48:31;97179.03;;;17.21;54.37
55171;BME280;41060;47.510;8.680;2023-05-24T05:50:58;97143.50;;;17.03;54.06
55171;BME280;41060;47.510;8.680;2023-05-24T05:53:24;97171.84;;;17.30;54.19
55171;BME280;41060;47.510;8.680;2023-05-24T05:55:51;97182.44;;;17.47;54.67
55171;BME280;41060;47.510;8.680;2023-05-24T05:58:18;97186.94;;;17.39;54.51
55171;BME280;41060;47.510;8.680;2023-05-24T06:00:46;97183.72;;;17.19;55.46
55171;BME280;41060;47.510;8.680;2023-05-24T06:03:12;97186.41;;;17.27;54.95
55171;BME280;41060;47.510;8.680;2023-05-24T06:05:40;97186.22;;;17.20;55.55
55171;BME280;41060;47.510;8.680;2023-05-24T06:08:07;97185.91;;;17.32;54.65
55171;BME280;41060;47.510;8.680;2023-05-24T06:10:33;97192.25;;;17.31;54.61
55171;BME280;41060;47.510;8.680;2023-05-24T06:13:01;97197.63;;;17.31;54.96
55171;BME280;41060;47.510;8.680;2023-05-24T06:15:28;97196.50;;;17.41;54.37
55171;BME280;41060;47.510;8.680;2023-05-24T06:17:56;97186.59;;;17.34;54.69
55171;BME280;41060;47.510;8.680;2023-05-24T06:20:23;97188.38;;;17.17;55.52
55171;BME280;41060;47.510;8.680;2023-05-24T06:22:49;97188.41;;;16.91;55.24
55171;BME280;41060;47.510;8.680;2023-05-24T06:25:19;97189.06;;;16.93;56.00
55171;BME280;41060;47.510;8.680;2023-05-24T06:27:49;97190.91;;;16.93;56.06
55171;BME280;41060;47.510;8.680;2023-05-24T06:30:16;97184.50;;;16.85;56.06
55171;BME280;41060;47.510;8.680;2023-05-24T06:32:43;97183.78;;;17.01;55.59
55171;BME280;41060;47.510;8.680;2023-05-24T06:35:11;97187.22;;;16.94;55.80
55171;BME280;41060;47.510;8.680;2023-05-24T06:37:38;97187.44;;;17.00;55.76
55171;BME280;41060;47.510;8.680;2023-05-24T06:40:08;97182.56;;;16.96;55.83
55171;BME280;41060;47.510;8.680;2023-05-24T06:42:35;97185.13;;;16.97;55.25
55171;BME280;41060;47.510;8.680;2023-05-24T06:45:02;97191.66;;;16.77;55.95
55171;BME280;41060;47.510;8.680;2023-05-24T06:47:28;97195.09;;;16.69;56.17
55171;BME280;41060;47.510;8.680;2023-05-24T06:49:56;97195.69;;;16.81;55.97
55171;BME280;41060;47.510;8.680;2023-05-24T06:52:23;97199.66;;;16.77;55.78
55171;BME280;41060;47.510;8.680;2023-05-24T06:54:51;97193.88;;;16.81;56.34
55171;BME280;41060;47.510;8.680;2023-05-24T06:57:18;97199.69;;;16.51;56.54
55171;BME280;41060;47.510;8.680;2023-05-24T06:59:44;97207.56;;;16.53;56.38
55171;BME280;41060;47.510;8.680;2023-05-24T07:02:11;97208.75;;;16.58;56.37
55171;BME280;41060;47.510;8.680;2023-05-24T07:04:38;97198.63;;;16.70;56.37
55171;BME280;41060;47.510;8.680;2023-05-24T07:07:05;97204.44;;;16.91;55.68
55171;BME280;41060;47.510;8.680;2023-05-24T07:09:33;97213.97;;;16.94;56.27
55171;BME280;41060;47.510;8.680;2023-05-24T07:12:00;97210.59;;;16.83;56.72
55171;BME280;41060;47.510;8.680;2023-05-24T07:14:27;96882.91;;;14.85;55.66
55171;BME280;41060;47.510;8.680;2023-05-24T07:16:54;97213.66;;;16.71;55.92
55171;BME280;41060;47.510;8.680;2023-05-24T07:19:24;97216.97;;;16.65;56.25
55171;BME280;41060;47.510;8.680;2023-05-24T07:21:53;97220.28;;;16.59;55.08
55171;BME280;41060;47.510;8.680;2023-05-24T07:24:20;97218.09;;;16.54;55.54
55171;BME280;41060;47.510;8.680;2023-05-24T07:26:50;97218.91;;;16.55;55.45
55171;BME280;41060;47.510;8.680;2023-05-24T07:29:16;97223.53;;;16.70;54.48
55171;BME280;41060;47.510;8.680;2023-05-24T07:31:43;97227.38;;;16.68;54.57
55171;BME280;41060;47.510;8.680;2023-05-24T07:34:11;97225.56;;;16.50;55.16
55171;BME280;41060;47.510;8.680;2023-05-24T07:36:37;97232.25;;;16.46;55.87
55171;BME280;41060;47.510;8.680;2023-05-24T07:39:05;97201.16;;;16.45;55.84
55171;BME280;41060;47.510;8.680;2023-05-24T07:41:36;97223.59;;;16.53;55.75
55171;BME280;41060;47.510;8.680;2023-05-24T07:44:04;97228.66;;;16.64;55.33
55171;BME280;41060;47.510;8.680;2023-05-24T07:46:30;97224.16;;;16.64;55.55
55171;BME280;41060;47.510;8.680;2023-05-24T07:48:58;97224.22;;;16.72;54.83
55171;BME280;41060;47.510;8.680;2023-05-24T07:51:24;97228.09;;;16.78;55.19
55171;BME280;41060;47.510;8.680;2023-05-24T07:53:51;97222.53;;;16.71;54.55
55171;BME280;41060;47.510;8.680;2023-05-24T07:56:18;97229.56;;;16.72;55.06
55171;BME280;41060;47.510;8.680;2023-05-24T07:58:45;97233.28;;;16.54;54.82
55171;BME280;41060;47.510;8.680;2023-05-24T08:01:17;97232.88;;;16.66;53.93
55171;BME280;41060;47.510;8.680;2023-05-24T08:03:45;97238.72;;;16.70;54.45
55171;BME280;41060;47.510;8.680;2023-05-24T08:06:11;97239.06;;;16.67;54.18
55171;BME280;41060;47.510;8.680;2023-05-24T08:08:38;97241.63;;;16.50;53.49
55171;BME280;41060;47.510;8.680;2023-05-24T08:11:08;97245.88;;;16.61;53.51
55171;BME280;41060;47.510;8.680;2023-05-24T08:13:35;97243.00;;;16.80;53.34
55171;BME280;41060;47.510;8.680;2023-05-24T08:16:01;97235.31;;;16.85;53.56
55171;BME280;41060;47.510;8.680;2023-05-24T08:18:30;97234.44;;;17.03;52.90
55171;BME280;41060;47.510;8.680;2023-05-24T08:20:56;97239.91;;;17.19;52.25
55171;BME280;41060;47.510;8.680;2023-05-24T08:23:23;97240.34;;;17.14;52.52
55171;BME280;41060;47.510;8.680;2023-05-24T08:25:50;97232.34;;;16.88;52.23
55171;BME280;41060;47.510;8.680;2023-05-24T08:28:17;97234.28;;;16.78;52.28
55171;BME280;41060;47.510;8.680;2023-05-24T08:30:44;97240.88;;;16.92;52.56
55171;BME280;41060;47.510;8.680;2023-05-24T08:33:11;97238.66;;;17.05;52.60
55171;BME280;41060;47.510;8.680;2023-05-24T08:35:39;97233.50;;;17.12;51.89
55171;BME280;41060;47.510;8.680;2023-05-24T08:38:06;97238.09;;;17.27;52.04
55171;BME280;41060;47.510;8.680;2023-05-24T08:40:33;97239.13;;;17.35;50.60
55171;BME280;41060;47.510;8.680;2023-05-24T08:43:00;97235.47;;;17.36;51.05
55171;BME280;41060;47.510;8.680;2023-05-24T08:45:29;97236.84;;;17.56;50.57
55171;BME280;41060;47.510;8.680;2023-05-24T08:47:57;97237.53;;;17.58;50.02
55171;BME280;41060;47.510;8.680;2023-05-24T08:50:24;97242.91;;;17.66;50.24
55171;BME280;41060;47.510;8.680;2023-05-24T08:52:53;97241.88;;;17.59;49.75
55171;BME280;41060;47.510;8.680;2023-05-24T08:55:20;97246.41;;;17.66;50.13
55171;BME280;41060;47.510;8.680;2023-05-24T08:57:47;97248.28;;;17.82;49.24
55171;BME280;41060;47.510;8.680;2023-05-24T09:00:15;97246.66;;;17.89;48.83
55171;BME280;41060;47.510;8.680;2023-05-24T09:02:44;97246.53;;;17.99;49.17
55171;BME280;41060;47.510;8.680;2023-05-24T09:05:12;97251.72;;;18.00;48.93
55171;BME280;41060;47.510;8.680;2023-05-24T09:07:41;97254.56;;;17.99;48.58
55171;BME280;41060;47.510;8.680;2023-05-24T09:10:10;97254.91;;;18.12;48.86
55171;BME280;41060;47.510;8.680;2023-05-24T09:12:38;97248.56;;;18.21;48.51
55171;BME280;41060;47.510;8.680;2023-05-24T09:15:08;97244.03;;;18.14;48.72
55171;BME280;41060;47.510;8.680;2023-05-24T09:17:37;97251.25;;;18.21;48.29
55171;BME280;41060;47.510;8.680;2023-05-24T09:20:05;97224.69;;;17.70;49.56
55171;BME280;41060;47.510;8.680;2023-05-24T09:22:35;97241.59;;;17.70;50.64
55171;BME280;41060;47.510;8.680;2023-05-24T09:25:05;97259.16;;;17.81;49.46
55171;BME280;41060;47.510;8.680;2023-05-24T09:27:34;97267.59;;;17.86;48.45
55171;BME280;41060;47.510;8.680;2023-05-24T09:30:02;97257.94;;;18.01;48.54
55171;BME280;41060;47.510;8.680;2023-05-24T09:32:30;97268.09;;;17.89;49.68
55171;BME280;41060;47.510;8.680;2023-05-24T09:34:57;97268.63;;;18.01;48.49
55171;BME280;41060;47.510;8.680;2023-05-24T09:37:25;97261.56;;;17.84;48.58
55171;BME280;41060;47.510;8.680;2023-05-24T09:39:54;97276.91;;;17.82;48.20
55171;BME280;41060;47.510;8.680;2023-05-24T09:42:23;97267.94;;;17.91;48.26
55171;BME280;41060;47.510;8.680;2023-05-24T09:44:59;97272.19;;;18.10;49.05
55171;BME280;41060;47.510;8.680;2023-05-24T09:47:30;97269.16;;;18.13;48.47
55171;BME280;41060;47.510;8.680;2023-05-24T09:49:57;97264.13;;;18.01;48.25
55171;BME280;41060;47.510;8.680;2023-05-24T09:52:24;97265.78;;;17.94;48.12
55171;BME280;41060;47.510;8.680;2023-05-24T09:54:51;97271.16;;;18.11;48.69
55171;BME280;41060;47.510;8.680;2023-05-24T09:57:18;97271.00;;;18.12;47.86
55171;BME280;41060;47.510;8.680;2023-05-24T09:59:47;97269.50;;;18.10;48.18
55171;BME280;41060;47.510;8.680;2023-05-24T10:02:15;97275.34;;;18.13;47.22
55171;BME280;41060;47.510;8.680;2023-05-24T10:04:44;97265.78;;;17.94;47.91
55171;BME280;41060;47.510;8.680;2023-05-24T10:07:11;97277.75;;;17.82;48.79
55171;BME280;41060;47.510;8.680;2023-05-24T10:09:39;97280.81;;;17.95;48.84
55171;BME280;41060;47.510;8.680;2023-05-24T10:12:07;97273.81;;;18.11;48.17
55171;BME280;41060;47.510;8.680;2023-05-24T10:14:34;97281.22;;;18.09;48.89
55171;BME280;41060;47.510;8.680;2023-05-24T10:17:02;97282.22;;;18.16;48.44
55171;BME280;41060;47.510;8.680;2023-05-24T10:19:31;97275.81;;;17.92;48.70
55171;BME280;41060;47.510;8.680;2023-05-24T10:21:58;97271.78;;;17.96;49.16
55171;BME280;41060;47.510;8.680;2023-05-24T10:24:31;97268.13;;;17.97;48.18
55171;BME280;41060;47.510;8.680;2023-05-24T10:26:59;97280.88;;;18.12;47.72
55171;BME280;41060;47.510;8.680;2023-05-24T10:29:47;97280.84;;;18.03;47.08
55171;BME280;41060;47.510;8.680;2023-05-24T10:32:19;97282.84;;;17.93;48.06
55171;BME280;41060;47.510;8.680;2023-05-24T10:34:51;97283.53;;;18.03;47.96
55171;BME280;41060;47.510;8.680;2023-05-24T10:37:18;97280.03;;;18.11;47.12
55171;BME280;41060;47.510;8.680;2023-05-24T10:39:45;97259.09;;;17.98;47.94
55171;BME280;41060;47.510;8.680;2023-05-24T10:42:12;97275.00;;;18.08;47.84
55171;BME280;41060;47.510;8.680;2023-05-24T10:44:39;97272.69;;;18.21;47.23
55171;BME280;41060;47.510;8.680;2023-05-24T10:47:08;97276.53;;;18.19;46.24
55171;BME280;41060;47.510;8.680;2023-05-24T10:49:37;97276.88;;;18.24;46.91
55171;BME280;41060;47.510;8.680;2023-05-24T10:52:09;97275.38;;;18.29;46.63
55171;BME280;41060;47.510;8.680;2023-05-24T10:54:36;97283.03;;;18.00;48.18
55171;BME280;41060;47.510;8.680;2023-05-24T10:57:03;97279.19;;;18.11;48.03
55171;BME280;41060;47.510;8.680;2023-05-24T10:59:33;97279.19;;;18.19;48.26
55171;BME280;41060;47.510;8.680;2023-05-24T11:02:03;97280.56;;;18.23;47.37
55171;BME280;41060;47.510;8.680;2023-05-24T11:04:36;97287.91;;;18.13;47.18
55171;BME280;41060;47.510;8.680;2023-05-24T11:07:04;97288.75;;;18.13;47.51
55171;BME280;41060;47.510;8.680;2023-05-24T11:09:35;97279.88;;;18.13;47.44
55171;BME280;41060;47.510;8.680;2023-05-24T11:12:05;97284.53;;;18.11;47.92
55171;BME280;41060;47.510;8.680;2023-05-24T11:14:35;97281.72;;;18.12;47.33
55171;BME280;41060;47.510;8.680;2023-05-24T11:17:05;97280.56;;;18.23;47.18
55171;BME280;41060;47.510;8.680;2023-05-24T11:19:37;97272.88;;;18.36;46.86
55171;BME280;41060;47.510;8.680;2023-05-24T11:22:06;97278.34;;;18.10;47.40
55171;BME280;41060;47.510;8.680;2023-05-24T11:24:34;97277.88;;;18.23;46.68
55171;BME280;41060;47.510;8.680;2023-05-24T11:27:03;97271.78;;;17.96;47.55
55171;BME280;41060;47.510;8.680;2023-05-24T11:29:30;97273.66;;;18.04;47.37
55171;BME280;41060;47.510;8.680;2023-05-24T11:31:57;97273.38;;;18.23;47.68
55171;BME280;41060;47.510;8.680;2023-05-24T11:34:29;97272.84;;;18.28;46.56
55171;BME280;41060;47.510;8.680;2023-05-24T11:36:57;97262.47;;;18.25;47.86
55171;BME280;41060;47.510;8.680;2023-05-24T11:39:28;97268.81;;;18.40;46.79
55171;BME280;41060;47.510;8.680;2023-05-24T11:41:56;97266.00;;;18.41;47.17
55171;BME280;41060;47.510;8.680;2023-05-24T11:44:23;97263.50;;;18.32;47.88
55171;BME280;41060;47.510;8.680;2023-05-24T11:46:56;97264.81;;;18.52;47.66
55171;BME280;41060;47.510;8.680;2023-05-24T11:49:23;97257.81;;;18.67;46.15
55171;BME280;41060;47.510;8.680;2023-05-24T11:51:52;97254.91;;;18.85;46.04
55171;BME280;41060;47.510;8.680;2023-05-24T11:54:19;97246.69;;;18.95;45.08
55171;BME280;41060;47.510;8.680;2023-05-24T11:56:47;97246.84;;;19.01;44.97
55171;BME280;41060;47.510;8.680;2023-05-24T11:59:16;97245.53;;;18.89;45.25
55171;BME280;41060;47.510;8.680;2023-05-24T12:01:43;97251.06;;;18.88;45.82
55171;BME280;41060;47.510;8.680;2023-05-24T12:04:11;97246.16;;;18.99;45.80
55171;BME280;41060;47.510;8.680;2023-05-24T12:06:38;97247.56;;;18.71;47.23
55171;BME280;41060;47.510;8.680;2023-05-24T12:09:06;97243.19;;;18.86;45.49
55171;BME280;41060;47.510;8.680;2023-05-24T12:11:39;97244.97;;;19.10;44.75
55171;BME280;41060;47.510;8.680;2023-05-24T12:14:06;97237.88;;;19.25;43.99
55171;BME280;41060;47.510;8.680;2023-05-24T12:16:38;97244.22;;;19.32;45.17
55171;BME280;41060;47.510;8.680;2023-05-24T12:19:05;97239.72;;;19.25;44.35
55171;BME280;41060;47.510;8.680;2023-05-24T12:21:34;97208.38;;;19.17;44.14
55171;BME280;41060;47.510;8.680;2023-05-24T12:24:10;97235.66;;;19.37;44.23
55171;BME280;41060;47.510;8.680;2023-05-24T12:26:40;97236.50;;;19.37;44.92
55171;BME280;41060;47.510;8.680;2023-05-24T12:29:08;97239.72;;;19.33;44.43
55171;BME280;41060;47.510;8.680;2023-05-24T12:31:37;97242.22;;;19.34;44.84
55171;BME280;41060;47.510;8.680;2023-05-24T12:34:10;97242.69;;;18.99;44.46
55171;BME280;41060;47.510;8.680;2023-05-24T12:36:37;97240.72;;;18.68;44.87
55171;BME280;41060;47.510;8.680;2023-05-24T12:39:15;97248.09;;;18.66;45.28
55171;BME280;41060;47.510;8.680;2023-05-24T12:41:43;97236.97;;;18.86;45.61
55171;BME280;41060;47.510;8.680;2023-05-24T12:44:10;97225.75;;;18.98;45.44
55171;BME280;41060;47.510;8.680;2023-05-24T12:46:38;97230.50;;;19.27;44.67
55171;BME280;41060;47.510;8.680;2023-05-24T12:49:08;97212.69;;;19.34;43.63
55171;BME280;41060;47.510;8.680;2023-05-24T12:51:35;97230.38;;;19.21;44.67
55171;BME280;41060;47.510;8.680;2023-05-24T12:54:02;97229.50;;;19.28;45.53
55171;BME280;41060;47.510;8.680;2023-05-24T12:56:30;97231.44;;;19.50;44.21
55171;BME280;41060;47.510;8.680;2023-05-24T12:58:56;97226.72;;;19.52;43.76
55171;BME280;41060;47.510;8.680;2023-05-24T13:01:23;97222.53;;;19.58;43.82
55171;BME280;41060;47.510;8.680;2023-05-24T13:03:52;97226.78;;;19.75;43.61
55171;BME280;41060;47.510;8.680;2023-05-24T13:06:19;97224.63;;;19.71;43.53